Flinterduin — PEBT — position and weather

sailwx.info

Track history (hours):
 
Tides and Currents Weather Stations Pressure Air Temp Water Temp Dewpoint Dewpoint Depression Visibility Wind Speed Wind Dir Waves Ship Positions

Flinterduin

Last reported at 2014-Aug-22 03:32 UTC. Time now 2014-Aug-22 04:00 UTC.
Position N 51°09' E 003°47'.

Length 112 m; beam 15 m.

Type: Cargo ship. MMSI: 246484000.

Date/timePositionNaut miles runAvg speedWind from/ knotsBaromVisibWave heightAir tempDewpointWater temp
2014-Aug-22 03:32N 51°09' E 003°47'0 0.0
2014-Aug-22 02:32N 51°09' E 003°47'0 0.0
2014-Aug-22 01:26N 51°09' E 003°47'0 0.0
2014-Aug-22 00:26N 51°09' E 003°47'0 0.0
2014-Aug-21 23:29N 51°09' E 003°47'0 0.0
2014-Aug-21 22:32N 51°09' E 003°47'0 0.0
2014-Aug-21 21:32N 51°09' E 003°47'0 0.0
2014-Aug-21 20:32N 51°09' E 003°47'0 0.0
2014-Aug-21 19:32N 51°09' E 003°47'0 0.0
2014-Aug-21 18:32N 51°09' E 003°47'0 0.0
2014-Aug-21 17:32N 51°09' E 003°47'0 0.0
2014-Aug-21 16:32N 51°09' E 003°47'0 0.0
2014-Aug-21 15:32N 51°09' E 003°47'0 0.0
2014-Aug-21 14:32N 51°09' E 003°47'0 0.0
2014-Aug-21 13:32N 51°09' E 003°47'0 0.0
2014-Aug-21 12:32N 51°09' E 003°47'0 0.0
2014-Aug-21 11:29N 51°09' E 003°47'0 0.0
2014-Aug-21 10:29N 51°09' E 003°47'0 0.0
2014-Aug-21 09:32N 51°09' E 003°47'0 0.0
2014-Aug-21 08:32N 51°09' E 003°47'0 0.0
2014-Aug-21 07:32N 51°09' E 003°47'0 0.0
2014-Aug-21 06:32N 51°09' E 003°47'0 0.0
2014-Aug-21 05:26N 51°09' E 003°47'0 0.0
2014-Aug-21 02:17N 51°09' E 003°47'0 0.0
2014-Aug-21 01:24N 51°09' E 003°47'0 0.0
2014-Aug-21 00:32N 51°09' E 003°47'0 0.0
2014-Aug-20 23:23N 51°09' E 003°47'0 0.0
2014-Aug-20 22:23N 51°09' E 003°47'0 0.0
2014-Aug-20 21:20N 51°09' E 003°47'0 0.0
2014-Aug-20 20:14N 51°09' E 003°47'0 0.0
2014-Aug-20 19:23N 51°09' E 003°47'0 0.0
2014-Aug-20 18:26N 51°09' E 003°47'0 0.2
2014-Aug-20 17:33N 51°09' E 003°47'7 6.7
2014-Aug-20 16:33N 51°16' E 003°50'4 3.9
2014-Aug-20 15:34N 51°20' E 003°49'1 1.0
2014-Aug-20 14:34N 51°21' E 003°49'7 6.9
2014-Aug-20 13:33N 51°26' E 003°41'8 8.3
2014-Aug-20 12:33N 51°25' E 003°28'1110.5
2014-Aug-20 11:33N 51°24' E 003°11'1212.1
2014-Aug-20 10:33N 51°22' E 002°52'10 9.6
2014-Aug-20 09:33N 51°22' E 002°36'1110.8
2014-Aug-20 08:30N 51°19' E 002°19'1213.1
2014-Aug-20 07:34N 51°13' E 002°02'1414.2
2014-Aug-20 06:34N 51°05' E 001°42'1313.4
2014-Aug-20 05:33N 50°55' E 001°28'1512.9
2014-Aug-20 04:22N 50°41' E 001°17'1113.1
2014-Aug-20 03:33N 50°35' E 001°04'1313.1
2014-Aug-20 02:31N 50°28' E 000°45'1513.3
2014-Aug-20 01:24N 50°24' E 000°23'1113.0
2014-Aug-20 00:31N 50°21' E 000°06'16112.9
2014-Aug-19 12:00N 49°24' W 003°48'109 9.2 310 / 81017.6 5.4 22.014.0
2014-Aug-19 00:07N 47°45' W 004°59'13512.5
2014-Aug-18 13:19N 46°26' W 002°19'1013.3
2014-Aug-18 12:33N 46°20' W 002°07'1221.5
2014-Aug-18 12:00N 46°12' W 001°54'2 4.0 310 / 81014.5 5.4 0.522.515.5
2014-Aug-18 11:33N 46°13' W 001°52'1312.9
2014-Aug-18 10:32N 46°07' W 001°34'  
2014-Aug-14 13:28N 46°06' W 001°24'1213.5
2014-Aug-14 12:33N 46°08' W 001°41'1312.6
2014-Aug-14 11:33N 46°15' W 001°57'1212.4
2014-Aug-14 10:33N 46°22' W 002°11'1212.5
2014-Aug-14 09:33N 46°29' W 002°26'13113.0
2014-Aug-13 23:30N 47°46' W 005°01'206 8.6
2014-Aug-12 23:29N 49°40' W 000°41'1111.8
2014-Aug-12 22:33N 49°35' W 000°25'1211.7
2014-Aug-12 21:33N 49°30' W 000°09'1110.7
2014-Aug-12 20:33N 49°26' E 000°06'1010.0
2014-Aug-12 19:33N 49°26' E 000°21'1111.0
2014-Aug-12 18:33N 49°27' E 000°38'  
Track history (hours):
 
Tides and Currents Weather Stations Pressure Air Temp Water Temp Dewpoint Dewpoint Depression Visibility Wind Speed Wind Dir Waves Ship Positions

Flinterduin

Last reported at 2014-Aug-22 03:32 UTC. Time now 2014-Aug-22 04:00 UTC.
Position N 51°09' E 003°47'.

Length 112 m; beam 15 m.

Type: Cargo ship. MMSI: 246484000.

Date/timePositionNaut miles runAvg speedWind from/ knotsBaromVisibWave heightAir tempDewpointWater temp
2014-Aug-22 03:32N 51°09' E 003°47'0 0.0
2014-Aug-22 02:32N 51°09' E 003°47'0 0.0
2014-Aug-22 01:26N 51°09' E 003°47'0 0.0
2014-Aug-22 00:26N 51°09' E 003°47'0 0.0
2014-Aug-21 23:29N 51°09' E 003°47'0 0.0
2014-Aug-21 22:32N 51°09' E 003°47'0 0.0
2014-Aug-21 21:32N 51°09' E 003°47'0 0.0
2014-Aug-21 20:32N 51°09' E 003°47'0 0.0
2014-Aug-21 19:32N 51°09' E 003°47'0 0.0
2014-Aug-21 18:32N 51°09' E 003°47'0 0.0
2014-Aug-21 17:32N 51°09' E 003°47'0 0.0
2014-Aug-21 16:32N 51°09' E 003°47'0 0.0
2014-Aug-21 15:32N 51°09' E 003°47'0 0.0
2014-Aug-21 14:32N 51°09' E 003°47'0 0.0
2014-Aug-21 13:32N 51°09' E 003°47'0 0.0
2014-Aug-21 12:32N 51°09' E 003°47'0 0.0
2014-Aug-21 11:29N 51°09' E 003°47'0 0.0
2014-Aug-21 10:29N 51°09' E 003°47'0 0.0
2014-Aug-21 09:32N 51°09' E 003°47'0 0.0
2014-Aug-21 08:32N 51°09' E 003°47'0 0.0
2014-Aug-21 07:32N 51°09' E 003°47'0 0.0
2014-Aug-21 06:32N 51°09' E 003°47'0 0.0
2014-Aug-21 05:26N 51°09' E 003°47'0 0.0
2014-Aug-21 02:17N 51°09' E 003°47'0 0.0
2014-Aug-21 01:24N 51°09' E 003°47'0 0.0
2014-Aug-21 00:32N 51°09' E 003°47'0 0.0
2014-Aug-20 23:23N 51°09' E 003°47'0 0.0
2014-Aug-20 22:23N 51°09' E 003°47'0 0.0
2014-Aug-20 21:20N 51°09' E 003°47'0 0.0
2014-Aug-20 20:14N 51°09' E 003°47'0 0.0
2014-Aug-20 19:23N 51°09' E 003°47'0 0.0
2014-Aug-20 18:26N 51°09' E 003°47'0 0.2
2014-Aug-20 17:33N 51°09' E 003°47'7 6.7
2014-Aug-20 16:33N 51°16' E 003°50'4 3.9
2014-Aug-20 15:34N 51°20' E 003°49'1 1.0
2014-Aug-20 14:34N 51°21' E 003°49'7 6.9
2014-Aug-20 13:33N 51°26' E 003°41'8 8.3
2014-Aug-20 12:33N 51°25' E 003°28'1110.5
2014-Aug-20 11:33N 51°24' E 003°11'1212.1
2014-Aug-20 10:33N 51°22' E 002°52'10 9.6
2014-Aug-20 09:33N 51°22' E 002°36'1110.8
2014-Aug-20 08:30N 51°19' E 002°19'1213.1
2014-Aug-20 07:34N 51°13' E 002°02'1414.2
2014-Aug-20 06:34N 51°05' E 001°42'1313.4
2014-Aug-20 05:33N 50°55' E 001°28'1512.9
2014-Aug-20 04:22N 50°41' E 001°17'1113.1
2014-Aug-20 03:33N 50°35' E 001°04'1313.1
2014-Aug-20 02:31N 50°28' E 000°45'1513.3
2014-Aug-20 01:24N 50°24' E 000°23'1113.0
2014-Aug-20 00:31N 50°21' E 000°06'16112.9
2014-Aug-19 12:00N 49°24' W 003°48'109 9.2 310 / 81017.6 5.4 22.014.0
2014-Aug-19 00:07N 47°45' W 004°59'13512.5
2014-Aug-18 13:19N 46°26' W 002°19'1013.3
2014-Aug-18 12:33N 46°20' W 002°07'1221.5
2014-Aug-18 12:00N 46°12' W 001°54'2 4.0 310 / 81014.5 5.4 0.522.515.5
2014-Aug-18 11:33N 46°13' W 001°52'1312.9
2014-Aug-18 10:32N 46°07' W 001°34'  
2014-Aug-14 13:28N 46°06' W 001°24'1213.5
2014-Aug-14 12:33N 46°08' W 001°41'1312.6
2014-Aug-14 11:33N 46°15' W 001°57'1212.4
2014-Aug-14 10:33N 46°22' W 002°11'1212.5
2014-Aug-14 09:33N 46°29' W 002°26'13113.0
2014-Aug-13 23:30N 47°46' W 005°01'206 8.6
2014-Aug-12 23:29N 49°40' W 000°41'1111.8
2014-Aug-12 22:33N 49°35' W 000°25'1211.7
2014-Aug-12 21:33N 49°30' W 000°09'1110.7
2014-Aug-12 20:33N 49°26' E 000°06'1010.0
2014-Aug-12 19:33N 49°26' E 000°21'1111.0
2014-Aug-12 18:33N 49°27' E 000°38'  

Dump ship's entire track history